ADDS METAR Data INFO
IDs: Format: Raw Decoded Include TAF

Data at: 0456 UTC 23 May 2017

KLXY 230435Z AUTO 02003KT 10SM SCT004 17/16 A2994 RMK AO2 T01670164
KLXY 230415Z AUTO 00000KT 10SM BKN004 17/17 A2994 RMK AO2 T01700165
KLXY 230355Z AUTO 03003KT 10SM BKN004 17/17 A2994 RMK AO2 T01710167
KLXY 230335Z AUTO 02003KT 10SM SCT006 17/17 A2993 RMK AO2 T01710167
KLXY 230315Z AUTO 00000KT 10SM CLR 17/17 A2993 RMK AO2 T01730168
KLXY 230255Z AUTO 07004KT 10SM CLR 18/17 A2992 RMK AO2 T01750169
KLXY 230235Z AUTO 08004KT 10SM CLR 18/17 A2992 RMK AO2 T01760170
KLXY 230215Z AUTO 00000KT 10SM CLR 18/17 A2992 RMK AO2 T01800170
KLXY 230155Z AUTO 05004KT 10SM CLR 18/17 A2992 RMK AO2 T01810171
KLXY 230135Z AUTO 05005KT 10SM SCT011 BKN029 19/17 A2991 RMK AO2 T01850170
KLXY 230115Z AUTO 02005KT 10SM SCT011 OVC025 19/17 A2992 RMK AO2 T01900169
KLXY 230055Z AUTO 05006KT 10SM OVC025 20/17 A2992 RMK AO2 T01960170
KLXY 230035Z AUTO 03005KT 10SM SCT015 OVC025 20/17 A2992 RMK AO2 LTG DSNT N T01980170
KLXY 230015Z AUTO 01004KT 10SM BKN015 OVC026 20/17 A2992 RMK AO2 T02020171
KLXY 222355Z AUTO 01004KT 10SM BKN017 OVC028 21/17 A2992 RMK AO2 T02050172 10231 20190
KLXY 222335Z AUTO 34004KT 10SM SCT017 BKN026 OVC030 21/17 A2991 RMK AO2 T02090171
KLXY 222315Z AUTO 34005KT 10SM SCT017 BKN022 OVC029 21/17 A2992 RMK AO2 T02110174
KLXY 222255Z AUTO 34008KT 300V020 10SM SCT019 OVC029 22/17 A2992 RMK AO2 T02190173
KLXY 222235Z AUTO 36005KT 10SM BKN019 OVC028 22/17 A2993 RMK AO2 T02150172
KLXY 222215Z AUTO 33004KT 10SM OVC024 22/17 A2993 RMK AO2 LTG DSNT N T02200172
KLXY 222155Z AUTO 05005KT 10SM OVC024 22/17 A2993 RMK AO2 T02240169
KLXY 222135Z AUTO 09007KT 070V160 10SM OVC022 23/17 A2993 RMK AO2 T02310171
KLXY 222115Z AUTO 13005KT 10SM OVC022 22/17 A2994 RMK AO2 T02240173
KLXY 222055Z AUTO 08003KT 10SM OVC020 22/17 A2995 RMK AO2 T02170174
KLXY 222035Z AUTO 12003KT 10SM OVC020 22/17 A2996 RMK AO2 T02190173
KLXY 222015Z AUTO 07006KT 10SM OVC018 22/17 A2997 RMK AO2 T02170173
KLXY 221955Z AUTO 08004KT 10SM OVC016 22/17 A2998 RMK AO2 T02150173
KLXY 221935Z AUTO 07006KT 10SM OVC014 21/17 A2999 RMK AO2 T02100173
KLXY 221915Z AUTO 07007KT 10SM OVC012 21/18 A3000 RMK AO2 T02070175
KLXY 221855Z AUTO 08005KT 10SM BKN010 OVC015 20/18 A3001 RMK AO2 T02000182
KLXY 221835Z AUTO 03004KT 7SM OVC010 20/18 A3002 RMK AO2 T01960176
KLXY 221815Z AUTO 03004KT 10SM OVC008 19/17 A3002 RMK AO2 T01900173
KLXY 221755Z AUTO 07005KT 10SM OVC008 20/18 A3002 RMK AO2 T02000175 10201 20158
KLXY 221735Z AUTO 09006KT 10SM OVC006 19/18 A3002 RMK AO2 LTG DSNT S T01900178
KLXY 221715Z AUTO 07005KT 10SM -DZ OVC006 18/18 A3004 RMK AO2 T01840175
KLXY 221655Z AUTO 05004KT 10SM OVC006 18/17 A3005 RMK AO2 T01750166
KLXY 221635Z AUTO 02004KT 10SM OVC006 18/17 A3005 RMK AO2 T01750165
KLXY 221615Z AUTO 04004KT 10SM OVC006 18/17 A3005 RMK AO2 T01750166
KLXY 221555Z AUTO 03006KT 10SM OVC008 18/16 A3005 RMK AO2 T01750163
KLXY 221535Z AUTO 02006KT 10SM OVC008 17/16 A3006 RMK AO2 T01740163
KLXY 221515Z AUTO 01008KT 10SM OVC008 17/16 A3006 RMK AO2 T01740162
KLXY 221455Z AUTO 02007KT 10SM OVC008 17/16 A3005 RMK AO2 T01730160
KLXY 221435Z AUTO 05005KT 10SM OVC008 17/16 A3004 RMK AO2 T01710160
KLXY 221415Z AUTO 08005KT 10SM SCT008 OVC065 17/16 A3004 RMK AO2 T01700156
KLXY 221355Z AUTO 09006KT 10SM BKN065 BKN075 OVC110 17/15 A3004 RMK AO2 T01700154
KLXY 221335Z AUTO 08006KT 10SM SCT075 OVC110 17/15 A3004 RMK AO2 T01700154
KLXY 221315Z AUTO 10006KT 10SM SCT065 BKN075 BKN090 16/15 A3003 RMK AO2 T01640153
KLXY 221255Z AUTO 07006KT 10SM SCT047 OVC065 16/15 A3004 RMK AO2 T01610151
KLXY 221235Z AUTO 07005KT 10SM OVC047 16/15 A3004 RMK AO2 LTG DSNT S T01600152
KLXY 221215Z AUTO 07005KT 10SM OVC047 16/15 A3005 RMK AO2 T01600152
KLXY 221200Z AUTO 06006KT 10SM OVC047 16/15 A3005 RMK AO2 T01580152
KLXY 221135Z AUTO 05007KT 10SM OVC049 16/15 A3006 RMK AO2 T01560150
KLXY 221115Z AUTO 04005KT 10SM BKN049 OVC070 16/15 A3006 RMK AO2 LTG DSNT NW T01550150
KLXY 221055Z AUTO 05007KT 10SM SCT049 OVC070 15/15 A3006 RMK AO2 T01530147
KLXY 221035Z AUTO 03006KT 10SM SCT060 BKN080 OVC100 15/15 A3008 RMK AO2 T01530147
KLXY 221015Z AUTO 03005KT 10SM -DZ SCT075 SCT085 OVC110 15/15 A3009 RMK AO2 T01520146
KLXY 220955Z AUTO 03005KT 10SM RA SCT035 SCT060 OVC085 15/15 A3008 RMK AO2 LTG DSNT SE AND S P0004 T01520146
KLXY 220935Z AUTO 01006KT 10SM RA SCT035 OVC060 15/14 A3008 RMK AO2 P0002 T01520143
KLXY 220915Z AUTO 36007KT 10SM -RA BKN060 OVC075 15/14 A3007 RMK AO2 LTG DSNT SE AND S T01510140
KLXY 220855Z AUTO 01006KT 10SM -RA BKN060 BKN075 OVC090 15/14 A3007 RMK AO2 P0010 60010 T01500141
KLXY 220835Z AUTO 36006KT 10SM -RA SCT036 BKN060 OVC100 15/14 A3008 RMK AO2 P0009 T01500143
KLXY 220815Z AUTO 01005G16KT 10SM RA OVC060 15/14 A3009 RMK AO2 T01520142
KLXY 220755Z AUTO 35007KT 10SM BKN060 OVC100 15/14 A3009 RMK AO2 T01500138
KLXY 220735Z AUTO 36007KT 10SM SCT050 BKN100 BKN120 15/14 A3008 RMK AO2 T01470136
KLXY 220715Z AUTO 01005KT 10SM BKN055 BKN090 BKN120 15/14 A3009 RMK AO2 T01450135
KLXY 220655Z AUTO 36006KT 10SM SCT055 OVC070 15/14 A3010 RMK AO2 T01450135
KLXY 220635Z AUTO 00000KT 10SM SCT050 OVC070 14/13 A3010 RMK AO2 T01420132
KLXY 220615Z AUTO 00000KT 10SM SCT050 BKN070 BKN120 14/13 A3010 RMK AO2 T01410127
KLXY 220555Z AUTO 03005KT 10SM BKN120 14/12 A3009 RMK AO2 60055 T01380122 10199 20137 402300137
KLXY 220535Z AUTO 05005KT 10SM BKN110 14/12 A3009 RMK AO2 LTG DSNT NE T01370118
KLXY 220515Z AUTO 06007KT 10SM SCT110 14/12 A3008 RMK AO2 T01370116
KLXY 220455Z AUTO 05007G16KT 10SM RA SCT045 BKN100 OVC120 14/13 A3009 RMK AO2 LTG DSNT NE P0007 T01410125
KLXY 220435Z AUTO 04007G18KT 10SM RA SCT100 OVC120 15/14 A3011 RMK AO2 LTG DSNT NE AND E P0006 T01470141
KLXY 220415Z AUTO 03012G16KT 10SM -RA SCT032 BKN080 OVC110 15/15 A3010 RMK AO2 LTG DSNT N THRU E P0005 T01480145
KLXY 220355Z AUTO 04007KT 5SM TSRA SCT025 BKN030 OVC070 15/14 A3014 RMK AO2 LTG DSNT N THRU SE P0047 T01470142
KLXY 220335Z AUTO 35004G15KT 4SM +TSRA SCT026 BKN046 OVC060 15/14 A3017 RMK AO2 LTG DSNT ALQS P0024 T01510143
KLXY 220315Z AUTO 23014G23KT 10SM -TSRA SCT046 OVC060 16/15 A3021 RMK AO2 LTG DSNT ALQS P0004 T01610149
KLXY 220255Z AUTO 27008KT 10SM -VCTSRA BKN044 OVC060 18/15 A3012 RMK AO2 LTG DSNT ALQS T01790151
KLXY 220235Z AUTO 00000KT 10SM TS BKN042 BKN060 OVC100 18/15 A3010 RMK AO2 LTG DSNT S THRU NW T01750149
KLXY 220215Z AUTO 00000KT 10SM -VCTSDZ SCT042 BKN100 BKN120 17/15 A3010 RMK AO2 LTG DSNT SW THRU NW T01740145
KLXY 220155Z AUTO 35003KT 10SM -TSDZ OVC100 18/14 A3008 RMK AO2 LTG DSNT SW THRU NW T01770141
KLXY 220135Z AUTO 00000KT 10SM VCTS BKN110 19/13 A3009 RMK AO2 LTG DSNT S THRU NW T01860131
KLXY 220115Z AUTO 08006KT 10SM SCT120 19/13 A3006 RMK AO2 LTG DSNT SW AND W T01870126
KLXY 220055Z AUTO 02005G14KT 10SM CLR 19/12 A3004 RMK AO2 LTG DSNT SW T01870122
KLXY 220035Z AUTO 36006KT 10SM SCT110 18/13 A3004 RMK AO2 LTG DSNT SW T01830127
KLXY 220015Z AUTO 36006KT 10SM SCT041 BKN085 BKN110 19/14 A3005 RMK AO2 LTG DSNT SE AND SW T01920135
KLXY 212355Z AUTO 35006KT 10SM BKN041 OVC090 20/14 A3007 RMK AO2 LTG DSNT N T01980137 10230 20198
KLXY 212335Z AUTO 00000KT 10SM SCT041 SCT055 BKN090 20/14 A3007 RMK AO2 LTG DSNT ALQS T02000135
KLXY 212315Z AUTO 36004KT 10SM OVC041 20/14 A3008 RMK AO2 LTG DSNT N S AND W T02010136
KLXY 212255Z AUTO 05004KT 10SM OVC041 20/14 A3008 RMK AO2 T02020137
KLXY 212235Z AUTO 05004KT 10SM OVC041 20/13 A3009 RMK AO2 LTG DSNT SE T02040130
KLXY 212215Z AUTO 03005KT 10SM BKN039 OVC060 21/12 A3010 RMK AO2 LTG DSNT SE T02050121
KLXY 212155Z AUTO 04007KT 340V060 10SM SCT039 BKN060 OVC090 21/12 A3009 RMK AO2 T02120124
KLXY 212135Z AUTO 04007G14KT 350V070 10SM OVC060 22/13 A3008 RMK AO2 LTG DSNT SE AND W T02150130
KLXY 212115Z AUTO 02009G14KT 10SM OVC060 21/13 A3006 RMK AO2 LTG DSNT SE T02110130
KLXY 212055Z AUTO 36005KT 10SM SCT047 OVC060 21/13 A3007 RMK AO2 T02070129
KLXY 212035Z AUTO 01005KT 10SM OVC045 21/13 A3009 RMK AO2 T02100134
KLXY 212015Z AUTO 36006KT 10SM OVC041 21/14 A3009 RMK AO2 T02100140
KLXY 211955Z AUTO 01004KT 10SM OVC041 21/14 A3010 RMK AO2 T02120142
KLXY 211935Z AUTO 02005KT 10SM OVC039 21/14 A3010 RMK AO2 T02110137
KLXY 211915Z AUTO 04004KT 10SM BKN039 OVC047 21/14 A3010 RMK AO2 LTG DSNT SE T02090136
KLXY 211855Z AUTO 01006KT 10SM SCT039 OVC047 22/14 A3010 RMK AO2 LTG DSNT E T02170135
KLXY 211835Z AUTO 05007KT 350V080 10SM SCT037 OVC047 22/12 A3010 RMK AO2 T02220122
KLXY 211815Z AUTO 06007KT 030V090 10SM SCT039 SCT047 BKN070 23/12 A3010 RMK AO2 LTG DSNT E T02280118
KLXY 211755Z AUTO 04010G15KT 10SM SCT110 22/11 A3011 RMK AO2 LTG DSNT NE AND E T02220110 10224 20187
KLXY 211735Z AUTO 04009G20KT 10SM SCT040 SCT075 BKN095 22/11 A3013 RMK AO2 LTG DSNT NE AND E T02210110
KLXY 211715Z AUTO 04010G16KT 10SM SCT040 BKN075 OVC095 21/11 A3014 RMK AO2 LTG DSNT NE AND E T02090109


Page loaded:  04:56 UTC  |   09:56 PM Pacific  |   10:56 PM Mountain  |   11:56 PM Central  |   12:56 AM Eastern

 

ADVISORIES

FORECASTS

FORECASTS

OBSERVATIONS

USER TOOLS

ABOUT US